sensor_id;sensor_type;location;lat;lon;timestamp;P1;durP1;ratioP1;P2;durP2;ratioP2
2458;SDS011;1241;50.920;6.936;2022-10-31T00:00:45;50.03;;;39.53;;
2458;SDS011;1241;50.920;6.936;2022-10-31T00:03:11;51.10;;;35.97;;
2458;SDS011;1241;50.920;6.936;2022-10-31T00:05:41;54.70;;;37.83;;
2458;SDS011;1241;50.920;6.936;2022-10-31T00:08:13;33.87;;;23.07;;
2458;SDS011;1241;50.920;6.936;2022-10-31T00:10:40;30.63;;;21.38;;
2458;SDS011;1241;50.920;6.936;2022-10-31T00:13:07;31.67;;;21.37;;
2458;SDS011;1241;50.920;6.936;2022-10-31T00:15:34;49.27;;;34.17;;
2458;SDS011;1241;50.920;6.936;2022-10-31T00:18:00;41.10;;;30.20;;
2458;SDS011;1241;50.920;6.936;2022-10-31T00:20:26;42.67;;;29.42;;
2458;SDS011;1241;50.920;6.936;2022-10-31T00:22:52;46.57;;;36.20;;
2458;SDS011;1241;50.920;6.936;2022-10-31T00:25:18;60.40;;;43.87;;
2458;SDS011;1241;50.920;6.936;2022-10-31T00:27:45;28.70;;;22.37;;
2458;SDS011;1241;50.920;6.936;2022-10-31T00:30:11;38.80;;;29.37;;
2458;SDS011;1241;50.920;6.936;2022-10-31T00:32:37;23.77;;;16.93;;
2458;SDS011;1241;50.920;6.936;2022-10-31T00:35:03;27.20;;;20.70;;
2458;SDS011;1241;50.920;6.936;2022-10-31T00:37:29;44.17;;;31.90;;
2458;SDS011;1241;50.920;6.936;2022-10-31T00:39:54;48.37;;;36.40;;
2458;SDS011;1241;50.920;6.936;2022-10-31T00:42:20;53.77;;;36.77;;
2458;SDS011;1241;50.920;6.936;2022-10-31T00:44:45;79.40;;;52.43;;
2458;SDS011;1241;50.920;6.936;2022-10-31T00:47:12;30.70;;;22.92;;
2458;SDS011;1241;50.920;6.936;2022-10-31T00:49:37;43.43;;;31.80;;
2458;SDS011;1241;50.920;6.936;2022-10-31T00:52:03;39.60;;;30.50;;
2458;SDS011;1241;50.920;6.936;2022-10-31T00:54:29;46.70;;;31.40;;
2458;SDS011;1241;50.920;6.936;2022-10-31T00:56:56;39.45;;;30.63;;
2458;SDS011;1241;50.920;6.936;2022-10-31T00:59:22;46.00;;;33.47;;
2458;SDS011;1241;50.920;6.936;2022-10-31T01:01:48;58.23;;;42.27;;
2458;SDS011;1241;50.920;6.936;2022-10-31T01:04:14;53.67;;;35.20;;
2458;SDS011;1241;50.920;6.936;2022-10-31T01:06:40;46.00;;;32.90;;
2458;SDS011;1241;50.920;6.936;2022-10-31T01:09:06;35.37;;;27.00;;
2458;SDS011;1241;50.920;6.936;2022-10-31T01:11:31;26.93;;;20.53;;
2458;SDS011;1241;50.920;6.936;2022-10-31T01:13:57;24.23;;;17.50;;
2458;SDS011;1241;50.920;6.936;2022-10-31T01:16:24;18.50;;;14.93;;
2458;SDS011;1241;50.920;6.936;2022-10-31T01:18:51;25.77;;;19.02;;
2458;SDS011;1241;50.920;6.936;2022-10-31T01:21:21;24.40;;;17.00;;
2458;SDS011;1241;50.920;6.936;2022-10-31T01:23:49;24.65;;;17.30;;
2458;SDS011;1241;50.920;6.936;2022-10-31T01:28:44;30.10;;;23.77;;
2458;SDS011;1241;50.920;6.936;2022-10-31T01:31:15;46.03;;;33.58;;
2458;SDS011;1241;50.920;6.936;2022-10-31T01:33:42;28.70;;;16.83;;
2458;SDS011;1241;50.920;6.936;2022-10-31T01:36:16;23.15;;;18.25;;
2458;SDS011;1241;50.920;6.936;2022-10-31T01:39:16;22.48;;;14.77;;
2458;SDS011;1241;50.920;6.936;2022-10-31T01:41:45;26.83;;;19.92;;
2458;SDS011;1241;50.920;6.936;2022-10-31T01:52:04;45.30;;;32.60;;
2458;SDS011;1241;50.920;6.936;2022-10-31T01:54:40;44.50;;;31.07;;
2458;SDS011;1241;50.920;6.936;2022-10-31T01:57:07;37.40;;;26.17;;
2458;SDS011;1241;50.920;6.936;2022-10-31T01:59:39;31.90;;;22.52;;
2458;SDS011;1241;50.920;6.936;2022-10-31T02:02:12;55.45;;;37.70;;
2458;SDS011;1241;50.920;6.936;2022-10-31T02:04:38;37.42;;;28.90;;
2458;SDS011;1241;50.920;6.936;2022-10-31T02:07:06;26.63;;;18.33;;
2458;SDS011;1241;50.920;6.936;2022-10-31T02:09:35;37.25;;;27.02;;
2458;SDS011;1241;50.920;6.936;2022-10-31T02:12:02;36.05;;;26.52;;
2458;SDS011;1241;50.920;6.936;2022-10-31T02:14:30;68.97;;;47.55;;
2458;SDS011;1241;50.920;6.936;2022-10-31T02:16:56;46.47;;;33.42;;
2458;SDS011;1241;50.920;6.936;2022-10-31T02:19:34;41.65;;;30.98;;
2458;SDS011;1241;50.920;6.936;2022-10-31T02:22:15;23.10;;;17.20;;
2458;SDS011;1241;50.920;6.936;2022-10-31T02:24:46;42.60;;;32.10;;
2458;SDS011;1241;50.920;6.936;2022-10-31T02:27:26;44.45;;;24.52;;
2458;SDS011;1241;50.920;6.936;2022-10-31T02:30:23;51.22;;;34.75;;
2458;SDS011;1241;50.920;6.936;2022-10-31T02:41:00;41.10;;;31.23;;
2458;SDS011;1241;50.920;6.936;2022-10-31T02:44:11;43.70;;;26.45;;
2458;SDS011;1241;50.920;6.936;2022-10-31T02:49:28;35.13;;;23.50;;
2458;SDS011;1241;50.920;6.936;2022-10-31T02:51:58;35.15;;;26.25;;
2458;SDS011;1241;50.920;6.936;2022-10-31T02:54:25;35.63;;;25.77;;
2458;SDS011;1241;50.920;6.936;2022-10-31T02:56:54;23.52;;;18.65;;
2458;SDS011;1241;50.920;6.936;2022-10-31T02:59:25;38.13;;;28.20;;
2458;SDS011;1241;50.920;6.936;2022-10-31T03:02:09;40.58;;;29.33;;
2458;SDS011;1241;50.920;6.936;2022-10-31T03:07:32;29.05;;;22.80;;
2458;SDS011;1241;50.920;6.936;2022-10-31T03:12:38;24.45;;;17.08;;
2458;SDS011;1241;50.920;6.936;2022-10-31T03:15:34;20.80;;;15.33;;
2458;SDS011;1241;50.920;6.936;2022-10-31T03:18:06;25.95;;;15.25;;
2458;SDS011;1241;50.920;6.936;2022-10-31T03:20:39;21.10;;;14.83;;
2458;SDS011;1241;50.920;6.936;2022-10-31T03:23:10;22.15;;;17.27;;
2458;SDS011;1241;50.920;6.936;2022-10-31T03:25:40;31.80;;;22.60;;
2458;SDS011;1241;50.920;6.936;2022-10-31T03:28:08;31.35;;;21.70;;
2458;SDS011;1241;50.920;6.936;2022-10-31T03:30:37;24.38;;;18.88;;
2458;SDS011;1241;50.920;6.936;2022-10-31T03:33:07;29.30;;;20.88;;
2458;SDS011;1241;50.920;6.936;2022-10-31T03:35:39;26.73;;;18.77;;
2458;SDS011;1241;50.920;6.936;2022-10-31T03:38:07;29.73;;;21.83;;
2458;SDS011;1241;50.920;6.936;2022-10-31T03:40:34;22.75;;;17.45;;
2458;SDS011;1241;50.920;6.936;2022-10-31T03:43:05;27.25;;;19.10;;
2458;SDS011;1241;50.920;6.936;2022-10-31T03:45:36;14.55;;;12.30;;
2458;SDS011;1241;50.920;6.936;2022-10-31T03:48:08;32.50;;;23.58;;
2458;SDS011;1241;50.920;6.936;2022-10-31T03:50:45;33.67;;;24.30;;
2458;SDS011;1241;50.920;6.936;2022-10-31T03:53:24;35.70;;;23.88;;
2458;SDS011;1241;50.920;6.936;2022-10-31T03:56:26;28.75;;;19.85;;
2458;SDS011;1241;50.920;6.936;2022-10-31T03:59:06;24.33;;;19.10;;
2458;SDS011;1241;50.920;6.936;2022-10-31T04:01:39;21.90;;;16.35;;
2458;SDS011;1241;50.920;6.936;2022-10-31T04:04:09;17.67;;;13.70;;
2458;SDS011;1241;50.920;6.936;2022-10-31T04:06:36;22.77;;;16.23;;
2458;SDS011;1241;50.920;6.936;2022-10-31T04:09:05;24.15;;;19.33;;
2458;SDS011;1241;50.920;6.936;2022-10-31T04:11:38;22.60;;;17.92;;
2458;SDS011;1241;50.920;6.936;2022-10-31T04:14:29;22.65;;;17.70;;
2458;SDS011;1241;50.920;6.936;2022-10-31T04:16:57;18.10;;;13.55;;
2458;SDS011;1241;50.920;6.936;2022-10-31T04:19:32;21.70;;;15.45;;
2458;SDS011;1241;50.920;6.936;2022-10-31T04:21:58;17.05;;;14.75;;
2458;SDS011;1241;50.920;6.936;2022-10-31T04:24:24;43.60;;;27.57;;
2458;SDS011;1241;50.920;6.936;2022-10-31T04:26:51;22.92;;;15.07;;
2458;SDS011;1241;50.920;6.936;2022-10-31T04:29:18;27.55;;;19.88;;
2458;SDS011;1241;50.920;6.936;2022-10-31T04:31:43;17.87;;;15.13;;
2458;SDS011;1241;50.920;6.936;2022-10-31T04:34:09;17.17;;;14.40;;
2458;SDS011;1241;50.920;6.936;2022-10-31T04:36:35;17.30;;;13.97;;
2458;SDS011;1241;50.920;6.936;2022-10-31T04:39:01;31.40;;;23.23;;
2458;SDS011;1241;50.920;6.936;2022-10-31T04:41:45;14.70;;;12.38;;
2458;SDS011;1241;50.920;6.936;2022-10-31T04:44:13;39.95;;;29.23;;
2458;SDS011;1241;50.920;6.936;2022-10-31T04:46:38;29.40;;;21.97;;
2458;SDS011;1241;50.920;6.936;2022-10-31T04:49:05;28.65;;;21.77;;
2458;SDS011;1241;50.920;6.936;2022-10-31T04:51:31;26.63;;;20.63;;
2458;SDS011;1241;50.920;6.936;2022-10-31T04:53:57;16.20;;;10.40;;
2458;SDS011;1241;50.920;6.936;2022-10-31T04:56:22;36.37;;;23.80;;
2458;SDS011;1241;50.920;6.936;2022-10-31T04:58:54;29.65;;;22.77;;
2458;SDS011;1241;50.920;6.936;2022-10-31T05:01:24;25.88;;;17.45;;
2458;SDS011;1241;50.920;6.936;2022-10-31T05:03:50;14.37;;;11.57;;
2458;SDS011;1241;50.920;6.936;2022-10-31T05:06:15;34.80;;;24.80;;
2458;SDS011;1241;50.920;6.936;2022-10-31T05:08:42;24.45;;;17.95;;
2458;SDS011;1241;50.920;6.936;2022-10-31T05:11:09;22.58;;;15.10;;
2458;SDS011;1241;50.920;6.936;2022-10-31T05:13:35;24.17;;;17.27;;
2458;SDS011;1241;50.920;6.936;2022-10-31T05:16:10;22.17;;;16.50;;
2458;SDS011;1241;50.920;6.936;2022-10-31T05:18:54;25.05;;;20.23;;
2458;SDS011;1241;50.920;6.936;2022-10-31T05:21:38;24.63;;;19.20;;
2458;SDS011;1241;50.920;6.936;2022-10-31T05:24:06;23.70;;;17.63;;
2458;SDS011;1241;50.920;6.936;2022-10-31T05:26:34;24.67;;;19.00;;
2458;SDS011;1241;50.920;6.936;2022-10-31T05:28:59;18.73;;;15.27;;
2458;SDS011;1241;50.920;6.936;2022-10-31T05:31:25;21.37;;;16.67;;
2458;SDS011;1241;50.920;6.936;2022-10-31T05:33:52;23.50;;;17.60;;
2458;SDS011;1241;50.920;6.936;2022-10-31T05:36:36;24.40;;;18.63;;
2458;SDS011;1241;50.920;6.936;2022-10-31T05:39:09;21.48;;;17.63;;
2458;SDS011;1241;50.920;6.936;2022-10-31T05:41:40;26.48;;;13.88;;
2458;SDS011;1241;50.920;6.936;2022-10-31T05:44:17;16.33;;;10.93;;
2458;SDS011;1241;50.920;6.936;2022-10-31T05:46:53;21.85;;;15.07;;
2458;SDS011;1241;50.920;6.936;2022-10-31T05:49:18;33.40;;;22.17;;
2458;SDS011;1241;50.920;6.936;2022-10-31T05:52:19;17.63;;;14.23;;
2458;SDS011;1241;50.920;6.936;2022-10-31T05:54:53;24.42;;;17.58;;
2458;SDS011;1241;50.920;6.936;2022-10-31T05:57:19;24.23;;;19.10;;
2458;SDS011;1241;50.920;6.936;2022-10-31T05:59:45;26.73;;;19.73;;
2458;SDS011;1241;50.920;6.936;2022-10-31T06:02:11;20.20;;;14.20;;
2458;SDS011;1241;50.920;6.936;2022-10-31T06:04:56;20.45;;;14.88;;
2458;SDS011;1241;50.920;6.936;2022-10-31T06:07:24;23.83;;;17.58;;
2458;SDS011;1241;50.920;6.936;2022-10-31T06:09:52;34.80;;;22.45;;
2458;SDS011;1241;50.920;6.936;2022-10-31T06:12:20;34.20;;;23.88;;
2458;SDS011;1241;50.920;6.936;2022-10-31T06:15:04;29.45;;;18.27;;
2458;SDS011;1241;50.920;6.936;2022-10-31T06:17:32;36.00;;;28.40;;
2458;SDS011;1241;50.920;6.936;2022-10-31T06:20:17;43.22;;;30.00;;
2458;SDS011;1241;50.920;6.936;2022-10-31T06:22:53;36.38;;;27.00;;
2458;SDS011;1241;50.920;6.936;2022-10-31T06:25:19;27.47;;;20.40;;
2458;SDS011;1241;50.920;6.936;2022-10-31T06:27:48;27.15;;;19.98;;
2458;SDS011;1241;50.920;6.936;2022-10-31T06:30:14;21.20;;;14.97;;
2458;SDS011;1241;50.920;6.936;2022-10-31T06:32:40;24.37;;;17.03;;
2458;SDS011;1241;50.920;6.936;2022-10-31T06:35:07;40.17;;;24.50;;
2458;SDS011;1241;50.920;6.936;2022-10-31T06:37:34;24.48;;;17.88;;
2458;SDS011;1241;50.920;6.936;2022-10-31T06:40:21;25.92;;;19.08;;
2458;SDS011;1241;50.920;6.936;2022-10-31T06:43:07;14.85;;;11.82;;
2458;SDS011;1241;50.920;6.936;2022-10-31T06:45:33;30.85;;;24.60;;
2458;SDS011;1241;50.920;6.936;2022-10-31T06:48:31;21.73;;;15.90;;
2458;SDS011;1241;50.920;6.936;2022-10-31T06:51:30;13.23;;;11.55;;
2458;SDS011;1241;50.920;6.936;2022-10-31T06:53:56;15.50;;;10.73;;
2458;SDS011;1241;50.920;6.936;2022-10-31T06:56:24;14.27;;;11.98;;
2458;SDS011;1241;50.920;6.936;2022-10-31T06:58:54;11.95;;;10.05;;
2458;SDS011;1241;50.920;6.936;2022-10-31T07:01:35;14.57;;;11.07;;
2458;SDS011;1241;50.920;6.936;2022-10-31T07:04:01;13.03;;;10.83;;
2458;SDS011;1241;50.920;6.936;2022-10-31T07:06:30;13.63;;;11.13;;
2458;SDS011;1241;50.920;6.936;2022-10-31T07:08:56;12.00;;;9.87;;
2458;SDS011;1241;50.920;6.936;2022-10-31T07:11:22;35.27;;;23.17;;
2458;SDS011;1241;50.920;6.936;2022-10-31T07:13:47;15.93;;;12.70;;
2458;SDS011;1241;50.920;6.936;2022-10-31T07:16:14;13.48;;;11.15;;
2458;SDS011;1241;50.920;6.936;2022-10-31T07:18:40;13.70;;;11.05;;
2458;SDS011;1241;50.920;6.936;2022-10-31T07:21:07;15.18;;;11.40;;
2458;SDS011;1241;50.920;6.936;2022-10-31T07:23:33;15.50;;;10.87;;
2458;SDS011;1241;50.920;6.936;2022-10-31T07:26:27;13.18;;;9.63;;
2458;SDS011;1241;50.920;6.936;2022-10-31T07:28:53;11.73;;;10.52;;
2458;SDS011;1241;50.920;6.936;2022-10-31T07:31:22;11.95;;;9.93;;
2458;SDS011;1241;50.920;6.936;2022-10-31T07:33:51;12.65;;;10.48;;
2458;SDS011;1241;50.920;6.936;2022-10-31T07:36:22;12.80;;;11.10;;
2458;SDS011;1241;50.920;6.936;2022-10-31T07:38:50;13.05;;;10.55;;
2458;SDS011;1241;50.920;6.936;2022-10-31T07:41:16;11.97;;;10.60;;
2458;SDS011;1241;50.920;6.936;2022-10-31T07:43:43;11.77;;;9.70;;
2458;SDS011;1241;50.920;6.936;2022-10-31T07:46:14;18.35;;;11.30;;
2458;SDS011;1241;50.920;6.936;2022-10-31T07:48:59;11.27;;;9.82;;
2458;SDS011;1241;50.920;6.936;2022-10-31T07:51:43;15.85;;;11.23;;
2458;SDS011;1241;50.920;6.936;2022-10-31T07:54:31;17.83;;;12.27;;
2458;SDS011;1241;50.920;6.936;2022-10-31T07:56:57;13.03;;;9.27;;
2458;SDS011;1241;50.920;6.936;2022-10-31T07:59:22;13.10;;;10.67;;
2458;SDS011;1241;50.920;6.936;2022-10-31T08:01:48;16.37;;;11.43;;
2458;SDS011;1241;50.920;6.936;2022-10-31T08:04:28;12.52;;;10.40;;
2458;SDS011;1241;50.920;6.936;2022-10-31T08:07:13;12.70;;;11.45;;
2458;SDS011;1241;50.920;6.936;2022-10-31T08:09:43;11.80;;;9.10;;
2458;SDS011;1241;50.920;6.936;2022-10-31T08:12:17;12.43;;;11.10;;
2458;SDS011;1241;50.920;6.936;2022-10-31T08:14:43;16.43;;;10.93;;
2458;SDS011;1241;50.920;6.936;2022-10-31T08:17:10;11.75;;;9.80;;
2458;SDS011;1241;50.920;6.936;2022-10-31T08:19:45;15.10;;;10.85;;
2458;SDS011;1241;50.920;6.936;2022-10-31T08:22:14;11.97;;;10.63;;
2458;SDS011;1241;50.920;6.936;2022-10-31T08:24:40;14.17;;;10.80;;
2458;SDS011;1241;50.920;6.936;2022-10-31T08:27:06;13.93;;;11.07;;
2458;SDS011;1241;50.920;6.936;2022-10-31T08:29:32;14.07;;;10.60;;
2458;SDS011;1241;50.920;6.936;2022-10-31T08:31:57;16.97;;;12.67;;
2458;SDS011;1241;50.920;6.936;2022-10-31T08:34:42;12.40;;;10.70;;
2458;SDS011;1241;50.920;6.936;2022-10-31T08:37:26;12.68;;;10.30;;
2458;SDS011;1241;50.920;6.936;2022-10-31T08:39:54;14.95;;;11.43;;
2458;SDS011;1241;50.920;6.936;2022-10-31T08:42:20;16.53;;;11.43;;
2458;SDS011;1241;50.920;6.936;2022-10-31T08:44:46;14.53;;;11.97;;
2458;SDS011;1241;50.920;6.936;2022-10-31T08:47:12;12.52;;;10.30;;
2458;SDS011;1241;50.920;6.936;2022-10-31T08:49:38;14.07;;;10.90;;
2458;SDS011;1241;50.920;6.936;2022-10-31T08:52:04;13.13;;;10.63;;
2458;SDS011;1241;50.920;6.936;2022-10-31T08:54:34;13.00;;;10.40;;
2458;SDS011;1241;50.920;6.936;2022-10-31T08:57:39;15.10;;;10.00;;
2458;SDS011;1241;50.920;6.936;2022-10-31T09:00:04;11.97;;;10.10;;
2458;SDS011;1241;50.920;6.936;2022-10-31T09:02:54;14.43;;;10.80;;
2458;SDS011;1241;50.920;6.936;2022-10-31T09:05:21;15.40;;;11.60;;
2458;SDS011;1241;50.920;6.936;2022-10-31T09:07:47;15.23;;;10.70;;
2458;SDS011;1241;50.920;6.936;2022-10-31T09:10:13;18.07;;;11.63;;
2458;SDS011;1241;50.920;6.936;2022-10-31T09:12:40;14.27;;;11.30;;
2458;SDS011;1241;50.920;6.936;2022-10-31T09:15:25;11.60;;;9.53;;
2458;SDS011;1241;50.920;6.936;2022-10-31T09:17:59;11.30;;;9.60;;
2458;SDS011;1241;50.920;6.936;2022-10-31T09:20:29;13.00;;;9.80;;
2458;SDS011;1241;50.920;6.936;2022-10-31T09:23:18;13.80;;;10.27;;
2458;SDS011;1241;50.920;6.936;2022-10-31T09:25:44;11.23;;;8.60;;
2458;SDS011;1241;50.920;6.936;2022-10-31T09:28:29;12.70;;;9.70;;
2458;SDS011;1241;50.920;6.936;2022-10-31T09:31:00;13.83;;;10.27;;
2458;SDS011;1241;50.920;6.936;2022-10-31T09:33:44;18.90;;;11.00;;
2458;SDS011;1241;50.920;6.936;2022-10-31T09:36:39;12.40;;;11.10;;
2458;SDS011;1241;50.920;6.936;2022-10-31T09:39:10;15.80;;;11.50;;
2458;SDS011;1241;50.920;6.936;2022-10-31T09:44:53;21.33;;;11.50;;
2458;SDS011;1241;50.920;6.936;2022-10-31T09:51:10;12.20;;;10.10;;
2458;SDS011;1241;50.920;6.936;2022-10-31T09:54:12;12.47;;;10.20;;
2458;SDS011;1241;50.920;6.936;2022-10-31T09:56:43;11.90;;;10.30;;
2458;SDS011;1241;50.920;6.936;2022-10-31T09:59:17;14.27;;;10.47;;
2458;SDS011;1241;50.920;6.936;2022-10-31T10:01:56;14.60;;;10.13;;
2458;SDS011;1241;50.920;6.936;2022-10-31T10:07:11;13.33;;;11.00;;
2458;SDS011;1241;50.920;6.936;2022-10-31T10:18:55;14.70;;;9.57;;
2458;SDS011;1241;50.920;6.936;2022-10-31T10:24:09;13.20;;;10.43;;
2458;SDS011;1241;50.920;6.936;2022-10-31T10:26:42;13.73;;;9.53;;
2458;SDS011;1241;50.920;6.936;2022-10-31T10:32:04;12.03;;;9.37;;
2458;SDS011;1241;50.920;6.936;2022-10-31T10:34:37;15.20;;;10.30;;
2458;SDS011;1241;50.920;6.936;2022-10-31T10:37:23;13.63;;;10.10;;
2458;SDS011;1241;50.920;6.936;2022-10-31T10:40:00;15.47;;;10.50;;
2458;SDS011;1241;50.920;6.936;2022-10-31T10:42:36;32.20;;;12.43;;
2458;SDS011;1241;50.920;6.936;2022-10-31T10:45:20;17.23;;;10.47;;
2458;SDS011;1241;50.920;6.936;2022-10-31T10:48:06;18.37;;;11.27;;
2458;SDS011;1241;50.920;6.936;2022-10-31T10:50:36;11.63;;;10.40;;
2458;SDS011;1241;50.920;6.936;2022-10-31T10:56:47;11.17;;;9.07;;
2458;SDS011;1241;50.920;6.936;2022-10-31T10:59:22;10.50;;;8.50;;
2458;SDS011;1241;50.920;6.936;2022-10-31T11:01:48;16.07;;;10.17;;
2458;SDS011;1241;50.920;6.936;2022-10-31T11:04:22;13.83;;;9.33;;
2458;SDS011;1241;50.920;6.936;2022-10-31T11:06:58;10.03;;;8.50;;
2458;SDS011;1241;50.920;6.936;2022-10-31T11:09:27;19.17;;;10.10;;
2458;SDS011;1241;50.920;6.936;2022-10-31T11:11:53;8.90;;;7.90;;
2458;SDS011;1241;50.920;6.936;2022-10-31T11:14:20;14.37;;;8.43;;
2458;SDS011;1241;50.920;6.936;2022-10-31T11:16:49;11.50;;;8.87;;
2458;SDS011;1241;50.920;6.936;2022-10-31T11:21:45;10.90;;;7.50;;
2458;SDS011;1241;50.920;6.936;2022-10-31T11:24:18;11.43;;;8.07;;
2458;SDS011;1241;50.920;6.936;2022-10-31T11:26:47;10.13;;;7.60;;
2458;SDS011;1241;50.920;6.936;2022-10-31T11:29:15;10.17;;;7.87;;
2458;SDS011;1241;50.920;6.936;2022-10-31T11:31:55;8.37;;;7.70;;
2458;SDS011;1241;50.920;6.936;2022-10-31T11:37:03;13.73;;;8.13;;
2458;SDS011;1241;50.920;6.936;2022-10-31T11:39:51;10.50;;;7.37;;
2458;SDS011;1241;50.920;6.936;2022-10-31T11:42:20;10.87;;;8.47;;
2458;SDS011;1241;50.920;6.936;2022-10-31T11:44:47;9.33;;;8.20;;
2458;SDS011;1241;50.920;6.936;2022-10-31T11:47:16;10.80;;;7.83;;
2458;SDS011;1241;50.920;6.936;2022-10-31T11:49:46;9.13;;;7.33;;
2458;SDS011;1241;50.920;6.936;2022-10-31T11:57:44;7.70;;;7.00;;
2458;SDS011;1241;50.920;6.936;2022-10-31T12:00:20;7.63;;;6.93;;
2458;SDS011;1241;50.920;6.936;2022-10-31T12:02:49;12.00;;;8.73;;
2458;SDS011;1241;50.920;6.936;2022-10-31T12:05:19;9.23;;;8.10;;
2458;SDS011;1241;50.920;6.936;2022-10-31T12:07:50;12.90;;;8.63;;
2458;SDS011;1241;50.920;6.936;2022-10-31T12:10:16;7.63;;;6.90;;
2458;SDS011;1241;50.920;6.936;2022-10-31T12:15:45;12.47;;;7.40;;
2458;SDS011;1241;50.920;6.936;2022-10-31T12:18:24;9.27;;;7.80;;
2458;SDS011;1241;50.920;6.936;2022-10-31T12:21:12;9.83;;;7.17;;
2458;SDS011;1241;50.920;6.936;2022-10-31T12:23:47;7.60;;;6.80;;
2458;SDS011;1241;50.920;6.936;2022-10-31T12:40:17;12.90;;;7.97;;
2458;SDS011;1241;50.920;6.936;2022-10-31T12:45:57;7.73;;;5.90;;
2458;SDS011;1241;50.920;6.936;2022-10-31T12:56:38;7.53;;;6.83;;
2458;SDS011;1241;50.920;6.936;2022-10-31T12:59:32;8.63;;;7.70;;
2458;SDS011;1241;50.920;6.936;2022-10-31T13:02:16;9.83;;;7.43;;
2458;SDS011;1241;50.920;6.936;2022-10-31T13:08:00;12.03;;;8.07;;
2458;SDS011;1241;50.920;6.936;2022-10-31T13:10:51;9.73;;;7.30;;
2458;SDS011;1241;50.920;6.936;2022-10-31T13:13:31;7.73;;;6.50;;
2458;SDS011;1241;50.920;6.936;2022-10-31T13:17:03;7.37;;;5.80;;
2458;SDS011;1241;50.920;6.936;2022-10-31T13:24:54;9.10;;;7.13;;
2458;SDS011;1241;50.920;6.936;2022-10-31T13:32:16;6.80;;;5.73;;
2458;SDS011;1241;50.920;6.936;2022-10-31T13:34:44;10.40;;;8.03;;
2458;SDS011;1241;50.920;6.936;2022-10-31T13:37:32;6.77;;;5.97;;
2458;SDS011;1241;50.920;6.936;2022-10-31T13:40:05;9.20;;;6.37;;
2458;SDS011;1241;50.920;6.936;2022-10-31T13:45:25;8.07;;;7.20;;
2458;SDS011;1241;50.920;6.936;2022-10-31T13:50:28;10.97;;;7.60;;
2458;SDS011;1241;50.920;6.936;2022-10-31T13:53:34;11.10;;;7.10;;
2458;SDS011;1241;50.920;6.936;2022-10-31T13:55:49;10.60;;;7.97;;
2458;SDS011;1241;50.920;6.936;2022-10-31T13:58:27;7.53;;;6.60;;
2458;SDS011;1241;50.920;6.936;2022-10-31T14:00:59;10.93;;;6.97;;
2458;SDS011;1241;50.920;6.936;2022-10-31T14:03:28;8.57;;;6.67;;
2458;SDS011;1241;50.920;6.936;2022-10-31T14:05:57;11.33;;;7.67;;
2458;SDS011;1241;50.920;6.936;2022-10-31T14:08:23;11.07;;;6.67;;
2458;SDS011;1241;50.920;6.936;2022-10-31T14:10:50;7.73;;;6.03;;
2458;SDS011;1241;50.920;6.936;2022-10-31T14:13:27;9.60;;;6.20;;
2458;SDS011;1241;50.920;6.936;2022-10-31T14:16:05;11.13;;;7.77;;
2458;SDS011;1241;50.920;6.936;2022-10-31T14:18:42;8.70;;;7.07;;
2458;SDS011;1241;50.920;6.936;2022-10-31T14:21:59;8.40;;;7.30;;
2458;SDS011;1241;50.920;6.936;2022-10-31T14:24:13;10.80;;;8.40;;
2458;SDS011;1241;50.920;6.936;2022-10-31T14:26:39;11.37;;;7.90;;
2458;SDS011;1241;50.920;6.936;2022-10-31T14:31:43;9.60;;;7.13;;
2458;SDS011;1241;50.920;6.936;2022-10-31T14:34:33;9.57;;;7.17;;
2458;SDS011;1241;50.920;6.936;2022-10-31T14:37:14;13.53;;;8.20;;
2458;SDS011;1241;50.920;6.936;2022-10-31T14:50:29;9.87;;;6.90;;
2458;SDS011;1241;50.920;6.936;2022-10-31T14:53:14;8.47;;;6.63;;
2458;SDS011;1241;50.920;6.936;2022-10-31T14:55:46;10.73;;;7.50;;
2458;SDS011;1241;50.920;6.936;2022-10-31T14:58:19;9.70;;;6.70;;
2458;SDS011;1241;50.920;6.936;2022-10-31T15:00:50;9.00;;;6.40;;
2458;SDS011;1241;50.920;6.936;2022-10-31T15:05:56;11.00;;;6.60;;
2458;SDS011;1241;50.920;6.936;2022-10-31T15:08:35;9.40;;;6.70;;
2458;SDS011;1241;50.920;6.936;2022-10-31T15:11:14;8.43;;;6.20;;
2458;SDS011;1241;50.920;6.936;2022-10-31T15:13:46;8.57;;;7.60;;
2458;SDS011;1241;50.920;6.936;2022-10-31T15:16:14;7.80;;;6.33;;
2458;SDS011;1241;50.920;6.936;2022-10-31T15:19:05;8.33;;;6.30;;
2458;SDS011;1241;50.920;6.936;2022-10-31T15:21:33;11.47;;;6.63;;
2458;SDS011;1241;50.920;6.936;2022-10-31T15:24:00;9.03;;;7.00;;
2458;SDS011;1241;50.920;6.936;2022-10-31T15:26:38;7.23;;;6.17;;
2458;SDS011;1241;50.920;6.936;2022-10-31T15:29:12;9.97;;;6.50;;
2458;SDS011;1241;50.920;6.936;2022-10-31T15:31:49;11.27;;;6.27;;
2458;SDS011;1241;50.920;6.936;2022-10-31T15:34:23;8.67;;;5.50;;
2458;SDS011;1241;50.920;6.936;2022-10-31T15:36:59;9.27;;;5.93;;
2458;SDS011;1241;50.920;6.936;2022-10-31T15:39:25;9.33;;;5.80;;
2458;SDS011;1241;50.920;6.936;2022-10-31T15:41:52;8.30;;;6.83;;
2458;SDS011;1241;50.920;6.936;2022-10-31T15:44:33;11.10;;;6.60;;
2458;SDS011;1241;50.920;6.936;2022-10-31T15:47:04;8.00;;;6.10;;
2458;SDS011;1241;50.920;6.936;2022-10-31T15:49:54;7.37;;;5.97;;
2458;SDS011;1241;50.920;6.936;2022-10-31T15:52:31;8.73;;;7.00;;
2458;SDS011;1241;50.920;6.936;2022-10-31T15:55:04;8.97;;;6.00;;
2458;SDS011;1241;50.920;6.936;2022-10-31T15:57:55;10.00;;;7.13;;
2458;SDS011;1241;50.920;6.936;2022-10-31T16:00:28;14.17;;;5.93;;
2458;SDS011;1241;50.920;6.936;2022-10-31T16:05:43;9.97;;;6.00;;
2458;SDS011;1241;50.920;6.936;2022-10-31T16:08:48;8.40;;;5.87;;
2458;SDS011;1241;50.920;6.936;2022-10-31T16:13:51;8.33;;;6.23;;
2458;SDS011;1241;50.920;6.936;2022-10-31T16:16:19;12.47;;;6.43;;
2458;SDS011;1241;50.920;6.936;2022-10-31T16:18:46;7.57;;;6.50;;
2458;SDS011;1241;50.920;6.936;2022-10-31T16:21:14;7.50;;;6.47;;
2458;SDS011;1241;50.920;6.936;2022-10-31T16:23:44;9.20;;;6.60;;
2458;SDS011;1241;50.920;6.936;2022-10-31T16:26:16;7.80;;;5.73;;
2458;SDS011;1241;50.920;6.936;2022-10-31T16:28:53;7.57;;;6.03;;
2458;SDS011;1241;50.920;6.936;2022-10-31T16:31:27;8.53;;;5.97;;
2458;SDS011;1241;50.920;6.936;2022-10-31T16:34:09;8.07;;;6.47;;
2458;SDS011;1241;50.920;6.936;2022-10-31T16:36:40;11.20;;;6.67;;
2458;SDS011;1241;50.920;6.936;2022-10-31T16:39:07;9.47;;;7.17;;
2458;SDS011;1241;50.920;6.936;2022-10-31T16:41:34;12.10;;;7.80;;
2458;SDS011;1241;50.920;6.936;2022-10-31T16:44:04;11.93;;;6.10;;
2458;SDS011;1241;50.920;6.936;2022-10-31T16:46:39;12.20;;;9.37;;
2458;SDS011;1241;50.920;6.936;2022-10-31T16:49:04;9.90;;;6.37;;
2458;SDS011;1241;50.920;6.936;2022-10-31T16:51:32;9.67;;;8.57;;
2458;SDS011;1241;50.920;6.936;2022-10-31T16:53:58;15.03;;;8.13;;
2458;SDS011;1241;50.920;6.936;2022-10-31T16:56:26;10.00;;;8.57;;
2458;SDS011;1241;50.920;6.936;2022-10-31T16:58:54;11.20;;;7.43;;
2458;SDS011;1241;50.920;6.936;2022-10-31T17:01:20;13.33;;;8.63;;
2458;SDS011;1241;50.920;6.936;2022-10-31T17:03:46;10.10;;;7.03;;
2458;SDS011;1241;50.920;6.936;2022-10-31T17:06:12;10.00;;;6.97;;
2458;SDS011;1241;50.920;6.936;2022-10-31T17:08:38;9.90;;;7.50;;
2458;SDS011;1241;50.920;6.936;2022-10-31T17:11:04;9.23;;;7.70;;
2458;SDS011;1241;50.920;6.936;2022-10-31T17:13:30;7.40;;;6.60;;
2458;SDS011;1241;50.920;6.936;2022-10-31T17:15:59;11.20;;;7.30;;
2458;SDS011;1241;50.920;6.936;2022-10-31T17:18:26;12.57;;;7.03;;
2458;SDS011;1241;50.920;6.936;2022-10-31T17:20:59;10.57;;;7.70;;
2458;SDS011;1241;50.920;6.936;2022-10-31T17:23:27;10.57;;;7.30;;
2458;SDS011;1241;50.920;6.936;2022-10-31T17:25:53;11.43;;;7.60;;
2458;SDS011;1241;50.920;6.936;2022-10-31T17:28:19;12.83;;;7.73;;
2458;SDS011;1241;50.920;6.936;2022-10-31T17:30:46;13.23;;;7.57;;
2458;SDS011;1241;50.920;6.936;2022-10-31T17:33:12;8.03;;;6.50;;
2458;SDS011;1241;50.920;6.936;2022-10-31T17:35:40;10.00;;;7.80;;
2458;SDS011;1241;50.920;6.936;2022-10-31T17:38:06;8.33;;;6.33;;
2458;SDS011;1241;50.920;6.936;2022-10-31T17:40:32;13.13;;;7.70;;